sensor_id;sensor_type;location;lat;lon;timestamp;pressure;altitude;pressure_sealevel;temperature;humidity
40596;BME280;26304;48.794;9.820;2022-09-09T00:05:14;96063.22;;;17.13;63.55
40596;BME280;26304;48.794;9.820;2022-09-09T00:11:01;96057.59;;;17.18;64.05
40596;BME280;26304;48.794;9.820;2022-09-09T00:16:50;96053.78;;;17.01;64.26
40596;BME280;26304;48.794;9.820;2022-09-09T00:22:38;96048.53;;;17.01;64.36
40596;BME280;26304;48.794;9.820;2022-09-09T00:28:23;96053.78;;;17.01;64.15
40596;BME280;26304;48.794;9.820;2022-09-09T00:34:13;96050.66;;;16.84;64.26
40596;BME280;26304;48.794;9.820;2022-09-09T00:39:59;96058.97;;;16.86;64.30
40596;BME280;26304;48.794;9.820;2022-09-09T00:45:56;96058.97;;;16.94;64.06
40596;BME280;26304;48.794;9.820;2022-09-09T00:51:48;96049.22;;;16.94;63.68
40596;BME280;26304;48.794;9.820;2022-09-09T00:57:37;96042.75;;;16.77;64.14
40596;BME280;26304;48.794;9.820;2022-09-09T01:03:24;96048.72;;;16.78;63.70
40596;BME280;26304;48.794;9.820;2022-09-09T01:09:15;96045.41;;;16.84;63.52
40596;BME280;26304;48.794;9.820;2022-09-09T01:15:08;96058.84;;;16.72;64.24
40596;BME280;26304;48.794;9.820;2022-09-09T01:20:58;96055.88;;;16.77;63.85
40596;BME280;26304;48.794;9.820;2022-09-09T01:26:44;96052.88;;;16.82;64.19
40596;BME280;26304;48.794;9.820;2022-09-09T01:32:42;96046.47;;;16.73;64.87
40596;BME280;26304;48.794;9.820;2022-09-09T01:38:25;96052.94;;;16.86;63.94
40596;BME280;26304;48.794;9.820;2022-09-09T01:44:09;96055.13;;;16.80;64.49
40596;BME280;26304;48.794;9.820;2022-09-09T01:49:52;96046.41;;;16.65;65.20
40596;BME280;26304;48.794;9.820;2022-09-09T01:55:38;96050.91;;;16.65;65.01
40596;BME280;26304;48.794;9.820;2022-09-09T02:01:30;96045.66;;;16.68;64.71
40596;BME280;26304;48.794;9.820;2022-09-09T02:07:30;96052.38;;;16.62;64.14
40596;BME280;26304;48.794;9.820;2022-09-09T02:13:18;96047.44;;;16.50;64.55
40596;BME280;26304;48.794;9.820;2022-09-09T02:19:06;96053.09;;;16.59;63.94
40596;BME280;26304;48.794;9.820;2022-09-09T02:24:55;96051.22;;;16.56;63.57
40596;BME280;26304;48.794;9.820;2022-09-09T02:30:40;96047.84;;;16.56;63.56
40596;BME280;26304;48.794;9.820;2022-09-09T02:36:29;96043.75;;;16.58;63.92
40596;BME280;26304;48.794;9.820;2022-09-09T02:42:14;96032.50;;;16.61;63.43
40596;BME280;26304;48.794;9.820;2022-09-09T02:48:03;96028.00;;;16.58;63.64
40596;BME280;26304;48.794;9.820;2022-09-09T02:53:54;96035.44;;;16.52;63.66
40596;BME280;26304;48.794;9.820;2022-09-09T02:59:43;96033.69;;;16.67;63.50
40596;BME280;26304;48.794;9.820;2022-09-09T03:05:25;96039.28;;;16.66;63.39
40596;BME280;26304;48.794;9.820;2022-09-09T03:11:10;96034.69;;;16.52;64.32
40596;BME280;26304;48.794;9.820;2022-09-09T03:16:53;96046.34;;;17.14;62.51
40596;BME280;26304;48.794;9.820;2022-09-09T03:22:35;96039.31;;;17.39;61.41
40596;BME280;26304;48.794;9.820;2022-09-09T03:28:19;96053.22;;;17.43;60.98
40596;BME280;26304;48.794;9.820;2022-09-09T03:34:02;96045.75;;;17.49;60.36
40596;BME280;26304;48.794;9.820;2022-09-09T03:39:44;96057.38;;;17.52;60.47
40596;BME280;26304;48.794;9.820;2022-09-09T03:45:28;96061.91;;;17.58;59.83
40596;BME280;26304;48.794;9.820;2022-09-09T03:51:11;96051.41;;;17.58;60.46
40596;BME280;26304;48.794;9.820;2022-09-09T03:56:53;96052.59;;;17.83;60.21
40596;BME280;26304;48.794;9.820;2022-09-09T04:02:37;96060.94;;;18.13;59.56
40596;BME280;26304;48.794;9.820;2022-09-09T04:08:21;96071.47;;;18.28;59.03
40596;BME280;26304;48.794;9.820;2022-09-09T04:14:03;96063.59;;;18.35;59.30
40596;BME280;26304;48.794;9.820;2022-09-09T04:19:48;96065.84;;;18.40;59.00
40596;BME280;26304;48.794;9.820;2022-09-09T04:25:30;96063.19;;;18.47;59.02
40596;BME280;26304;48.794;9.820;2022-09-09T04:31:17;96056.06;;;18.41;59.18
40596;BME280;26304;48.794;9.820;2022-09-09T04:37:02;96057.94;;;18.58;59.10
40596;BME280;26304;48.794;9.820;2022-09-09T04:42:44;96051.56;;;18.59;58.86
40596;BME280;26304;48.794;9.820;2022-09-09T04:48:29;96057.22;;;18.54;58.90
40596;BME280;26304;48.794;9.820;2022-09-09T04:54:13;96068.47;;;18.62;58.07
40596;BME280;26304;48.794;9.820;2022-09-09T04:59:56;96065.81;;;18.62;58.36
40596;BME280;26304;48.794;9.820;2022-09-09T05:05:38;96073.75;;;18.65;58.41
40596;BME280;26304;48.794;9.820;2022-09-09T05:11:23;96069.22;;;18.66;58.71
40596;BME280;26304;48.794;9.820;2022-09-09T05:17:06;96071.47;;;18.71;58.84
40596;BME280;26304;48.794;9.820;2022-09-09T05:22:52;96068.81;;;18.75;59.39
40596;BME280;26304;48.794;9.820;2022-09-09T05:28:36;96076.34;;;18.73;59.57
40596;BME280;26304;48.794;9.820;2022-09-09T05:34:19;96086.16;;;18.72;59.39
40596;BME280;26304;48.794;9.820;2022-09-09T05:40:01;96085.03;;;18.77;58.99
40596;BME280;26304;48.794;9.820;2022-09-09T05:45:46;96092.53;;;18.78;58.89
40596;BME280;26304;48.794;9.820;2022-09-09T05:51:29;96100.03;;;18.76;58.82
40596;BME280;26304;48.794;9.820;2022-09-09T05:57:12;96101.22;;;18.86;58.83
40596;BME280;26304;48.794;9.820;2022-09-09T06:02:55;96098.56;;;18.68;59.10
40596;BME280;26304;48.794;9.820;2022-09-09T06:08:40;96088.75;;;18.79;58.45
40596;BME280;26304;48.794;9.820;2022-09-09T06:14:25;96076.75;;;18.78;58.54
40596;BME280;26304;48.794;9.820;2022-09-09T06:20:10;96085.00;;;18.80;58.74
40596;BME280;26304;48.794;9.820;2022-09-09T06:26:01;96101.22;;;18.86;58.77
40596;BME280;26304;48.794;9.820;2022-09-09T06:31:43;96094.06;;;18.86;58.86
40596;BME280;26304;48.794;9.820;2022-09-09T06:37:27;96101.56;;;18.77;58.97
40596;BME280;26304;48.794;9.820;2022-09-09T06:43:10;96098.94;;;18.77;59.01
40596;BME280;26304;48.794;9.820;2022-09-09T06:48:52;96089.53;;;18.87;59.05
40596;BME280;26304;48.794;9.820;2022-09-09T06:54:37;96094.44;;;18.85;59.09
40596;BME280;26304;48.794;9.820;2022-09-09T07:00:19;96093.69;;;18.84;59.37
40596;BME280;26304;48.794;9.820;2022-09-09T07:06:02;96097.03;;;18.74;59.72
40596;BME280;26304;48.794;9.820;2022-09-09T07:11:47;96104.59;;;18.86;59.27
40596;BME280;26304;48.794;9.820;2022-09-09T07:17:30;96114.00;;;18.95;59.33
40596;BME280;26304;48.794;9.820;2022-09-09T07:23:12;96114.72;;;18.95;59.35
40596;BME280;26304;48.794;9.820;2022-09-09T07:28:56;96121.13;;;18.98;59.73
40596;BME280;26304;48.794;9.820;2022-09-09T07:34:39;96118.13;;;18.96;59.78
40596;BME280;26304;48.794;9.820;2022-09-09T07:40:21;96124.88;;;18.97;59.84
40596;BME280;26304;48.794;9.820;2022-09-09T07:46:05;96124.16;;;18.93;60.30
40596;BME280;26304;48.794;9.820;2022-09-09T07:51:48;96120.00;;;19.06;59.49
40596;BME280;26304;48.794;9.820;2022-09-09T07:57:30;96133.16;;;19.10;59.51
40596;BME280;26304;48.794;9.820;2022-09-09T08:03:14;96136.19;;;19.04;60.29
40596;BME280;26304;48.794;9.820;2022-09-09T08:08:56;96126.78;;;19.07;60.04
40596;BME280;26304;48.794;9.820;2022-09-09T08:14:39;96138.06;;;18.97;60.61
40596;BME280;26304;48.794;9.820;2022-09-09T08:20:23;96142.94;;;19.20;59.78
40596;BME280;26304;48.794;9.820;2022-09-09T08:26:06;96141.41;;;19.22;59.79
40596;BME280;26304;48.794;9.820;2022-09-09T08:31:51;96145.94;;;19.26;60.11
40596;BME280;26304;48.794;9.820;2022-09-09T08:37:36;96156.09;;;19.31;59.85
40596;BME280;26304;48.794;9.820;2022-09-09T08:43:20;96162.88;;;19.28;60.39
40596;BME280;26304;48.794;9.820;2022-09-09T08:49:08;96164.00;;;19.31;60.31
40596;BME280;26304;48.794;9.820;2022-09-09T08:55:03;96162.50;;;19.30;60.80
40596;BME280;26304;48.794;9.820;2022-09-09T09:01:00;96155.72;;;19.36;60.75
40596;BME280;26304;48.794;9.820;2022-09-09T09:06:50;96150.06;;;19.37;60.66
40596;BME280;26304;48.794;9.820;2022-09-09T09:12:41;96151.97;;;19.30;60.68
40596;BME280;26304;48.794;9.820;2022-09-09T09:18:25;96146.66;;;19.37;60.66
40596;BME280;26304;48.794;9.820;2022-09-09T09:24:16;96142.84;;;19.52;60.93
40596;BME280;26304;48.794;9.820;2022-09-09T09:30:12;96152.63;;;19.59;60.74
40596;BME280;26304;48.794;9.820;2022-09-09T09:35:55;96147.38;;;19.63;60.80
40596;BME280;26304;48.794;9.820;2022-09-09T09:41:42;96148.91;;;19.46;61.42
40596;BME280;26304;48.794;9.820;2022-09-09T09:47:26;96143.94;;;19.62;60.86
40596;BME280;26304;48.794;9.820;2022-09-09T09:53:20;96141.28;;;19.73;60.85
40596;BME280;26304;48.794;9.820;2022-09-09T09:59:03;96136.06;;;19.66;60.86
40596;BME280;26304;48.794;9.820;2022-09-09T10:04:47;96141.66;;;19.75;60.66
40596;BME280;26304;48.794;9.820;2022-09-09T10:10:42;96136.75;;;19.84;60.85
40596;BME280;26304;48.794;9.820;2022-09-09T10:16:38;96137.16;;;19.79;61.09
40596;BME280;26304;48.794;9.820;2022-09-09T10:22:28;96119.75;;;19.92;60.86
40596;BME280;26304;48.794;9.820;2022-09-09T10:28:29;96118.63;;;19.93;60.17
40596;BME280;26304;48.794;9.820;2022-09-09T10:34:33;96120.91;;;19.91;60.43
40596;BME280;26304;48.794;9.820;2022-09-09T10:40:29;96108.41;;;19.95;60.15
40596;BME280;26304;48.794;9.820;2022-09-09T10:46:20;96109.94;;;19.96;60.33
40596;BME280;26304;48.794;9.820;2022-09-09T10:52:11;96105.69;;;20.13;60.39
40596;BME280;26304;48.794;9.820;2022-09-09T10:58:00;96103.84;;;20.10;60.17
40596;BME280;26304;48.794;9.820;2022-09-09T11:03:49;96106.38;;;20.25;60.02
40596;BME280;26304;48.794;9.820;2022-09-09T11:09:38;96114.66;;;20.27;59.08
40596;BME280;26304;48.794;9.820;2022-09-09T11:15:29;96102.16;;;20.35;58.52
40596;BME280;26304;48.794;9.820;2022-09-09T11:21:17;96099.50;;;20.38;58.45
40596;BME280;26304;48.794;9.820;2022-09-09T11:27:08;96096.75;;;20.53;57.59
40596;BME280;26304;48.794;9.820;2022-09-09T11:33:15;96089.19;;;20.58;57.25
40596;BME280;26304;48.794;9.820;2022-09-09T11:39:09;96087.22;;;20.62;56.31
40596;BME280;26304;48.794;9.820;2022-09-09T11:44:56;96074.47;;;20.57;56.20
40596;BME280;26304;48.794;9.820;2022-09-09T11:50:40;96077.78;;;20.68;55.15
40596;BME280;26304;48.794;9.820;2022-09-09T11:56:27;96058.09;;;20.77;54.61
40596;BME280;26304;48.794;9.820;2022-09-09T12:02:13;96057.25;;;20.87;53.73
40596;BME280;26304;48.794;9.820;2022-09-09T12:08:02;96056.41;;;20.94;53.03
40596;BME280;26304;48.794;9.820;2022-09-09T12:13:52;96045.94;;;20.83;54.07
40596;BME280;26304;48.794;9.820;2022-09-09T12:19:35;96071.16;;;20.91;52.63
40596;BME280;26304;48.794;9.820;2022-09-09T12:25:23;96123.53;;;20.51;53.90
40596;BME280;26304;48.794;9.820;2022-09-09T12:31:15;96129.16;;;19.93;59.47
40596;BME280;26304;48.794;9.820;2022-09-09T12:37:05;96119.19;;;20.23;59.19
40596;BME280;26304;48.794;9.820;2022-09-09T12:42:50;96128.91;;;20.37;58.83
40596;BME280;26304;48.794;9.820;2022-09-09T12:48:35;96126.56;;;20.49;58.64
40596;BME280;26304;48.794;9.820;2022-09-09T12:54:19;96125.06;;;20.52;58.97
40596;BME280;26304;48.794;9.820;2022-09-09T13:00:14;96106.97;;;20.47;59.57
40596;BME280;26304;48.794;9.820;2022-09-09T13:05:58;96103.94;;;20.52;59.43
40596;BME280;26304;48.794;9.820;2022-09-09T13:11:45;96095.91;;;20.63;58.89
40596;BME280;26304;48.794;9.820;2022-09-09T13:17:32;96101.47;;;20.76;58.25
40596;BME280;26304;48.794;9.820;2022-09-09T13:23:16;96090.25;;;20.64;57.80
40596;BME280;26304;48.794;9.820;2022-09-09T13:29:16;96093.16;;;20.81;56.95
40596;BME280;26304;48.794;9.820;2022-09-09T13:35:01;96091.25;;;20.81;56.48
40596;BME280;26304;48.794;9.820;2022-09-09T13:40:52;96083.69;;;20.83;56.16
40596;BME280;26304;48.794;9.820;2022-09-09T13:46:37;96084.31;;;20.95;55.93
40596;BME280;26304;48.794;9.820;2022-09-09T13:52:23;96079.00;;;21.02;55.66
40596;BME280;26304;48.794;9.820;2022-09-09T13:58:15;96071.25;;;21.18;55.13
40596;BME280;26304;48.794;9.820;2022-09-09T14:03:59;96071.38;;;21.08;55.67
40596;BME280;26304;48.794;9.820;2022-09-09T14:09:43;96058.88;;;21.12;55.48
40596;BME280;26304;48.794;9.820;2022-09-09T14:15:25;96064.84;;;21.19;55.58
40596;BME280;26304;48.794;9.820;2022-09-09T14:21:08;96062.25;;;21.12;55.48
40596;BME280;26304;48.794;9.820;2022-09-09T14:26:52;96062.63;;;21.14;55.52
40596;BME280;26304;48.794;9.820;2022-09-09T14:32:36;96061.44;;;21.19;55.60
40596;BME280;26304;48.794;9.820;2022-09-09T14:38:19;96057.38;;;21.11;55.74
40596;BME280;26304;48.794;9.820;2022-09-09T14:44:03;96051.84;;;21.32;54.46
40596;BME280;26304;48.794;9.820;2022-09-09T14:49:46;96055.72;;;21.24;53.97
40596;BME280;26304;48.794;9.820;2022-09-09T14:55:30;96048.75;;;21.37;53.27
40596;BME280;26304;48.794;9.820;2022-09-09T15:01:16;96052.38;;;21.54;53.00
40596;BME280;26304;48.794;9.820;2022-09-09T15:06:59;96044.13;;;21.45;52.40
40596;BME280;26304;48.794;9.820;2022-09-09T15:12:41;96036.59;;;21.44;51.61
40596;BME280;26304;48.794;9.820;2022-09-09T15:18:25;96046.78;;;21.45;52.55
40596;BME280;26304;48.794;9.820;2022-09-09T15:24:07;96047.13;;;21.51;51.57
40596;BME280;26304;48.794;9.820;2022-09-09T15:29:50;96046.84;;;21.41;51.82
40596;BME280;26304;48.794;9.820;2022-09-09T15:35:34;96038.94;;;21.38;51.29
40596;BME280;26304;48.794;9.820;2022-09-09T15:41:18;96036.66;;;21.40;50.82
40596;BME280;26304;48.794;9.820;2022-09-09T15:47:01;96032.28;;;21.61;50.39
40596;BME280;26304;48.794;9.820;2022-09-09T15:52:44;96035.56;;;21.68;49.45
40596;BME280;26304;48.794;9.820;2022-09-09T15:58:29;96031.09;;;21.62;49.33
40596;BME280;26304;48.794;9.820;2022-09-09T16:04:13;96037.97;;;21.59;48.63
40596;BME280;26304;48.794;9.820;2022-09-09T16:09:58;96037.97;;;21.55;49.33
40596;BME280;26304;48.794;9.820;2022-09-09T16:15:40;96042.00;;;21.36;49.11
40596;BME280;26304;48.794;9.820;2022-09-09T16:21:25;96049.28;;;21.25;48.69
40596;BME280;26304;48.794;9.820;2022-09-09T16:27:11;96049.50;;;21.38;48.79
40596;BME280;26304;48.794;9.820;2022-09-09T16:32:55;96050.34;;;21.31;48.84
40596;BME280;26304;48.794;9.820;2022-09-09T16:38:37;96045.09;;;21.28;49.03
40596;BME280;26304;48.794;9.820;2022-09-09T16:44:21;96039.59;;;21.46;48.71
40596;BME280;26304;48.794;9.820;2022-09-09T16:50:04;96042.28;;;21.42;48.67
40596;BME280;26304;48.794;9.820;2022-09-09T16:55:47;96050.53;;;21.48;48.08
40596;BME280;26304;48.794;9.820;2022-09-09T17:01:35;96050.72;;;21.33;49.61
40596;BME280;26304;48.794;9.820;2022-09-09T17:07:19;96050.16;;;21.46;49.94
40596;BME280;26304;48.794;9.820;2022-09-09T17:13:01;96060.06;;;21.41;49.21
40596;BME280;26304;48.794;9.820;2022-09-09T17:18:45;96058.00;;;21.22;50.36
40596;BME280;26304;48.794;9.820;2022-09-09T17:24:28;96063.06;;;21.44;50.21
40596;BME280;26304;48.794;9.820;2022-09-09T17:30:11;96092.84;;;21.13;50.09
40596;BME280;26304;48.794;9.820;2022-09-09T17:35:55;96095.16;;;20.70;50.72
40596;BME280;26304;48.794;9.820;2022-09-09T17:41:39;96100.69;;;20.79;50.87
40596;BME280;26304;48.794;9.820;2022-09-09T17:47:22;96114.88;;;20.99;51.25
40596;BME280;26304;48.794;9.820;2022-09-09T17:53:05;96127.88;;;20.79;51.70
40596;BME280;26304;48.794;9.820;2022-09-09T17:58:48;96125.50;;;20.92;50.96
40596;BME280;26304;48.794;9.820;2022-09-09T18:04:31;96134.66;;;20.84;50.46
40596;BME280;26304;48.794;9.820;2022-09-09T18:10:15;96147.19;;;20.73;50.55
40596;BME280;26304;48.794;9.820;2022-09-09T18:15:58;96154.31;;;20.76;50.51
40596;BME280;26304;48.794;9.820;2022-09-09T18:21:41;96157.69;;;20.80;51.06
40596;BME280;26304;48.794;9.820;2022-09-09T18:27:25;96154.34;;;20.72;51.23
40596;BME280;26304;48.794;9.820;2022-09-09T18:33:09;96159.50;;;20.90;51.13
40596;BME280;26304;48.794;9.820;2022-09-09T18:38:52;96172.22;;;21.02;50.46
40596;BME280;26304;48.794;9.820;2022-09-09T18:44:37;96163.28;;;20.89;51.33
40596;BME280;26304;48.794;9.820;2022-09-09T18:50:20;96163.00;;;20.76;51.27
40596;BME280;26304;48.794;9.820;2022-09-09T18:56:05;96185.59;;;20.84;51.26
40596;BME280;26304;48.794;9.820;2022-09-09T19:01:50;96195.06;;;20.78;51.12
40596;BME280;26304;48.794;9.820;2022-09-09T19:07:33;96201.06;;;20.86;51.08
40596;BME280;26304;48.794;9.820;2022-09-09T19:13:15;96210.91;;;20.78;50.31
40596;BME280;26304;48.794;9.820;2022-09-09T19:19:01;96211.91;;;20.39;50.92
40596;BME280;26304;48.794;9.820;2022-09-09T19:24:44;96209.91;;;20.54;50.31
40596;BME280;26304;48.794;9.820;2022-09-09T19:30:26;96214.91;;;20.41;50.76
40596;BME280;26304;48.794;9.820;2022-09-09T19:36:11;96198.22;;;20.55;50.43
40596;BME280;26304;48.794;9.820;2022-09-09T19:41:55;96209.22;;;20.43;50.57
40596;BME280;26304;48.794;9.820;2022-09-09T19:47:37;96208.50;;;20.35;50.76
40596;BME280;26304;48.794;9.820;2022-09-09T19:53:21;96199.47;;;20.36;50.49
40596;BME280;26304;48.794;9.820;2022-09-09T19:59:05;96205.91;;;20.28;50.85
40596;BME280;26304;48.794;9.820;2022-09-09T20:04:48;96210.47;;;20.20;51.23
40596;BME280;26304;48.794;9.820;2022-09-09T20:10:31;96211.25;;;20.17;51.15
40596;BME280;26304;48.794;9.820;2022-09-09T20:16:16;96217.25;;;20.18;51.24
40596;BME280;26304;48.794;9.820;2022-09-09T20:21:59;96217.38;;;19.96;51.85
40596;BME280;26304;48.794;9.820;2022-09-09T20:27:42;96219.22;;;19.95;52.08
40596;BME280;26304;48.794;9.820;2022-09-09T20:33:25;96216.22;;;19.93;51.77
40596;BME280;26304;48.794;9.820;2022-09-09T20:39:09;96223.41;;;19.89;52.19
40596;BME280;26304;48.794;9.820;2022-09-09T20:44:53;96230.19;;;19.90;52.12
40596;BME280;26304;48.794;9.820;2022-09-09T20:50:35;96236.59;;;19.86;52.16
40596;BME280;26304;48.794;9.820;2022-09-09T20:56:19;96234.75;;;19.79;52.20
40596;BME280;26304;48.794;9.820;2022-09-09T21:02:03;96231.72;;;19.70;52.71
40596;BME280;26304;48.794;9.820;2022-09-09T21:07:46;96232.09;;;19.75;52.56
40596;BME280;26304;48.794;9.820;2022-09-09T21:13:29;96240.75;;;19.83;52.49
40596;BME280;26304;48.794;9.820;2022-09-09T21:19:13;96235.09;;;19.67;52.71
40596;BME280;26304;48.794;9.820;2022-09-09T21:24:55;96233.25;;;19.46;53.31
40596;BME280;26304;48.794;9.820;2022-09-09T21:30:39;96237.03;;;19.48;53.72
40596;BME280;26304;48.794;9.820;2022-09-09T21:36:24;96247.19;;;19.53;53.44
40596;BME280;26304;48.794;9.820;2022-09-09T21:42:08;96241.16;;;19.38;53.94
40596;BME280;26304;48.794;9.820;2022-09-09T21:47:50;96241.56;;;19.33;54.23
40596;BME280;26304;48.794;9.820;2022-09-09T21:53:34;96242.31;;;19.41;53.96
40596;BME280;26304;48.794;9.820;2022-09-09T21:59:17;96232.88;;;19.40;54.38
40596;BME280;26304;48.794;9.820;2022-09-09T22:05:00;96237.44;;;19.36;54.56
40596;BME280;26304;48.794;9.820;2022-09-09T22:10:45;96242.31;;;19.48;54.46
40596;BME280;26304;48.794;9.820;2022-09-09T22:16:27;96237.78;;;19.52;54.38
40596;BME280;26304;48.794;9.820;2022-09-09T22:22:11;96233.63;;;19.51;54.73
40596;BME280;26304;48.794;9.820;2022-09-09T22:27:55;96233.25;;;19.56;54.17
40596;BME280;26304;48.794;9.820;2022-09-09T22:33:37;96223.50;;;19.39;54.79
40596;BME280;26304;48.794;9.820;2022-09-09T22:39:20;96225.00;;;19.33;55.02
40596;BME280;26304;48.794;9.820;2022-09-09T22:45:04;96227.63;;;19.26;55.11
40596;BME280;26304;48.794;9.820;2022-09-09T22:50:47;96240.44;;;19.38;54.92
40596;BME280;26304;48.794;9.820;2022-09-09T22:56:29;96240.81;;;19.36;54.81
40596;BME280;26304;48.794;9.820;2022-09-09T23:02:13;96237.41;;;19.43;54.78
40596;BME280;26304;48.794;9.820;2022-09-09T23:07:55;96243.06;;;19.27;55.77
40596;BME280;26304;48.794;9.820;2022-09-09T23:13:40;96241.19;;;19.35;55.54
40596;BME280;26304;48.794;9.820;2022-09-09T23:19:24;96247.59;;;19.27;55.68
40596;BME280;26304;48.794;9.820;2022-09-09T23:25:08;96240.06;;;19.07;56.47
40596;BME280;26304;48.794;9.820;2022-09-09T23:30:51;96246.09;;;19.33;55.84
40596;BME280;26304;48.794;9.820;2022-09-09T23:36:35;96234.06;;;19.10;56.33
40596;BME280;26304;48.794;9.820;2022-09-09T23:42:18;96237.41;;;19.14;56.68
40596;BME280;26304;48.794;9.820;2022-09-09T23:48:00;96237.78;;;18.95;57.27
40596;BME280;26304;48.794;9.820;2022-09-09T23:53:45;96272.03;;;18.87;58.72
40596;BME280;26304;48.794;9.820;2022-09-09T23:59:31;96267.16;;;19.00;59.47
